sensor_id;sensor_type;location;lat;lon;timestamp;pressure;altitude;pressure_sealevel;temperature;humidity
3844;BME280;1937;51.444;6.484;2023-08-06T00:02:11;69040.25;;;16.45;96.05
3844;BME280;1937;51.444;6.484;2023-08-06T00:04:37;69096.03;;;16.75;95.45
3844;BME280;1937;51.444;6.484;2023-08-06T00:07:05;69117.44;;;16.75;94.88
3844;BME280;1937;51.444;6.484;2023-08-06T00:09:32;69142.06;;;16.88;94.99
3844;BME280;1937;51.444;6.484;2023-08-06T00:11:59;69157.13;;;16.98;94.76
3844;BME280;1937;51.444;6.484;2023-08-06T00:14:25;69185.69;;;17.16;93.92
3844;BME280;1937;51.444;6.484;2023-08-06T00:16:52;69152.63;;;17.03;94.20
3844;BME280;1937;51.444;6.484;2023-08-06T00:19:18;69174.88;;;17.02;94.64
3844;BME280;1937;51.444;6.484;2023-08-06T00:21:45;69117.97;;;16.94;94.70
3844;BME280;1937;51.444;6.484;2023-08-06T00:24:13;69098.53;;;16.82;95.58
3844;BME280;1937;51.444;6.484;2023-08-06T00:26:39;69178.53;;;16.99;95.43
3844;BME280;1937;51.444;6.484;2023-08-06T00:29:06;69121.84;;;16.88;95.84
3844;BME280;1937;51.444;6.484;2023-08-06T00:31:32;69120.56;;;16.94;95.43
3844;BME280;1937;51.444;6.484;2023-08-06T00:33:59;69168.59;;;16.95;95.44
3844;BME280;1937;51.444;6.484;2023-08-06T00:36:25;69155.38;;;17.08;94.76
3844;BME280;1937;51.444;6.484;2023-08-06T00:38:52;69217.25;;;17.07;95.40
3844;BME280;1937;51.444;6.484;2023-08-06T00:41:20;69184.22;;;17.06;95.35
3844;BME280;1937;51.444;6.484;2023-08-06T00:43:46;69180.44;;;17.05;95.78
3844;BME280;1937;51.444;6.484;2023-08-06T00:46:13;69205.56;;;17.13;95.51
3844;BME280;1937;51.444;6.484;2023-08-06T00:48:40;69215.28;;;17.19;95.54
3844;BME280;1937;51.444;6.484;2023-08-06T00:51:09;69158.91;;;17.00;96.66
3844;BME280;1937;51.444;6.484;2023-08-06T00:53:36;69228.47;;;17.06;96.37
3844;BME280;1937;51.444;6.484;2023-08-06T00:56:03;69229.88;;;17.05;97.18
3844;BME280;1937;51.444;6.484;2023-08-06T00:58:32;69241.94;;;17.02;97.59
3844;BME280;1937;51.444;6.484;2023-08-06T01:00:58;69210.72;;;17.02;97.20
3844;BME280;1937;51.444;6.484;2023-08-06T01:03:25;69218.22;;;16.93;97.60
3844;BME280;1937;51.444;6.484;2023-08-06T01:05:52;69230.56;;;16.99;97.55
3844;BME280;1937;51.444;6.484;2023-08-06T01:08:28;69232.84;;;17.07;96.89
3844;BME280;1937;51.444;6.484;2023-08-06T01:11:08;69230.09;;;17.03;97.10
3844;BME280;1937;51.444;6.484;2023-08-06T01:13:43;69287.03;;;17.11;97.67
3844;BME280;1937;51.444;6.484;2023-08-06T01:16:13;69314.84;;;17.31;96.46
3844;BME280;1937;51.444;6.484;2023-08-06T01:18:41;69274.47;;;17.25;96.84
3844;BME280;1937;51.444;6.484;2023-08-06T01:21:12;69273.28;;;17.24;96.65
3844;BME280;1937;51.444;6.484;2023-08-06T01:23:39;69321.06;;;17.27;96.87
3844;BME280;1937;51.444;6.484;2023-08-06T01:26:12;69319.81;;;17.33;96.88
3844;BME280;1937;51.444;6.484;2023-08-06T01:28:46;69241.63;;;17.10;96.09
3844;BME280;1937;51.444;6.484;2023-08-06T01:31:18;69204.19;;;16.96;96.80
3844;BME280;1937;51.444;6.484;2023-08-06T01:33:49;69199.81;;;16.95;97.01
3844;BME280;1937;51.444;6.484;2023-08-06T01:36:19;69257.81;;;17.11;96.52
3844;BME280;1937;51.444;6.484;2023-08-06T01:38:46;69249.97;;;17.00;96.57
3844;BME280;1937;51.444;6.484;2023-08-06T01:41:13;69224.41;;;16.96;96.37
3844;BME280;1937;51.444;6.484;2023-08-06T01:43:39;69199.56;;;16.97;96.79
3844;BME280;1937;51.444;6.484;2023-08-06T01:46:06;69314.19;;;17.19;96.07
3844;BME280;1937;51.444;6.484;2023-08-06T01:48:33;69232.63;;;17.09;95.65
3844;BME280;1937;51.444;6.484;2023-08-06T01:50:59;69162.41;;;16.92;94.97
3844;BME280;1937;51.444;6.484;2023-08-06T01:53:27;69172.00;;;16.93;95.63
3844;BME280;1937;51.444;6.484;2023-08-06T01:55:54;69221.84;;;17.07;95.88
3844;BME280;1937;51.444;6.484;2023-08-06T01:58:20;69247.31;;;17.17;95.39
3844;BME280;1937;51.444;6.484;2023-08-06T02:00:47;69247.59;;;17.27;95.40
3844;BME280;1937;51.444;6.484;2023-08-06T02:03:13;69335.72;;;17.42;95.12
3844;BME280;1937;51.444;6.484;2023-08-06T02:05:40;69227.59;;;17.25;94.96
3844;BME280;1937;51.444;6.484;2023-08-06T02:08:07;69243.44;;;17.23;95.14
3844;BME280;1937;51.444;6.484;2023-08-06T02:10:35;69248.53;;;17.18;95.49
3844;BME280;1937;51.444;6.484;2023-08-06T02:13:01;69216.19;;;17.11;95.89
3844;BME280;1937;51.444;6.484;2023-08-06T02:15:28;69257.81;;;17.11;96.06
3844;BME280;1937;51.444;6.484;2023-08-06T02:17:55;69205.94;;;16.98;96.48
3844;BME280;1937;51.444;6.484;2023-08-06T02:20:21;69257.69;;;17.06;96.43
3844;BME280;1937;51.444;6.484;2023-08-06T02:22:48;69178.66;;;16.74;97.34
3844;BME280;1937;51.444;6.484;2023-08-06T02:25:14;69213.25;;;16.91;97.44
3844;BME280;1937;51.444;6.484;2023-08-06T02:27:42;69210.22;;;16.95;97.05
3844;BME280;1937;51.444;6.484;2023-08-06T02:30:09;69229.63;;;16.96;97.58
3844;BME280;1937;51.444;6.484;2023-08-06T02:32:36;69193.22;;;16.78;98.11
3844;BME280;1937;51.444;6.484;2023-08-06T02:35:02;69229.56;;;16.85;97.92
3844;BME280;1937;51.444;6.484;2023-08-06T02:37:29;69227.19;;;16.83;98.14
3844;BME280;1937;51.444;6.484;2023-08-06T02:39:55;69280.00;;;16.99;97.41
3844;BME280;1937;51.444;6.484;2023-08-06T02:42:22;69278.50;;;17.06;96.64
3844;BME280;1937;51.444;6.484;2023-08-06T02:44:52;69252.41;;;17.13;96.01
3844;BME280;1937;51.444;6.484;2023-08-06T02:47:20;69272.72;;;17.06;96.61
3844;BME280;1937;51.444;6.484;2023-08-06T02:49:47;69236.41;;;17.10;95.71
3844;BME280;1937;51.444;6.484;2023-08-06T02:52:13;69222.97;;;16.97;96.71
3844;BME280;1937;51.444;6.484;2023-08-06T02:54:40;69231.25;;;16.93;97.00
3844;BME280;1937;51.444;6.484;2023-08-06T02:57:06;69195.88;;;16.89;97.83
3844;BME280;1937;51.444;6.484;2023-08-06T02:59:33;69250.78;;;16.98;97.50
3844;BME280;1937;51.444;6.484;2023-08-06T03:02:01;69245.66;;;16.92;97.61
3844;BME280;1937;51.444;6.484;2023-08-06T03:04:27;69236.91;;;16.89;97.95
3844;BME280;1937;51.444;6.484;2023-08-06T03:06:54;69270.19;;;16.99;97.63
3844;BME280;1937;51.444;6.484;2023-08-06T03:09:20;69270.47;;;16.91;97.51
3844;BME280;1937;51.444;6.484;2023-08-06T03:11:47;69235.78;;;16.81;98.32
3844;BME280;1937;51.444;6.484;2023-08-06T03:14:13;69218.88;;;16.75;98.49
3844;BME280;1937;51.444;6.484;2023-08-06T03:16:40;69173.38;;;16.81;98.54
3844;BME280;1937;51.444;6.484;2023-08-06T03:19:08;69266.41;;;16.81;98.37
3844;BME280;1937;51.444;6.484;2023-08-06T03:21:34;69249.41;;;16.82;98.43
3844;BME280;1937;51.444;6.484;2023-08-06T03:24:01;69214.03;;;16.78;98.30
3844;BME280;1937;51.444;6.484;2023-08-06T03:26:27;69228.44;;;16.77;98.44
3844;BME280;1937;51.444;6.484;2023-08-06T03:28:54;69219.25;;;16.78;97.84
3844;BME280;1937;51.444;6.484;2023-08-06T03:31:20;69234.25;;;16.77;98.41
3844;BME280;1937;51.444;6.484;2023-08-06T03:33:47;69199.41;;;16.63;98.49
3844;BME280;1937;51.444;6.484;2023-08-06T03:36:15;69199.63;;;16.61;98.96
3844;BME280;1937;51.444;6.484;2023-08-06T03:38:41;69177.72;;;16.54;99.20
3844;BME280;1937;51.444;6.484;2023-08-06T03:41:08;69183.94;;;16.50;99.14
3844;BME280;1937;51.444;6.484;2023-08-06T03:43:35;69177.00;;;16.49;99.40
3844;BME280;1937;51.444;6.484;2023-08-06T03:46:01;69219.47;;;16.58;99.01
3844;BME280;1937;51.444;6.484;2023-08-06T03:48:28;69227.66;;;16.61;99.31
3844;BME280;1937;51.444;6.484;2023-08-06T03:50:54;69225.47;;;16.57;98.84
3844;BME280;1937;51.444;6.484;2023-08-06T03:53:22;69193.47;;;16.58;98.88
3844;BME280;1937;51.444;6.484;2023-08-06T03:55:48;69187.38;;;16.49;99.27
3844;BME280;1937;51.444;6.484;2023-08-06T03:58:15;69209.72;;;16.52;99.76
3844;BME280;1937;51.444;6.484;2023-08-06T04:00:42;69227.25;;;16.58;99.82
3844;BME280;1937;51.444;6.484;2023-08-06T04:03:08;69234.41;;;16.64;99.88
3844;BME280;1937;51.444;6.484;2023-08-06T04:05:35;69226.59;;;16.64;99.39
3844;BME280;1937;51.444;6.484;2023-08-06T04:08:01;69231.44;;;16.62;99.51
3844;BME280;1937;51.444;6.484;2023-08-06T04:10:29;69261.00;;;16.65;99.66
3844;BME280;1937;51.444;6.484;2023-08-06T04:12:56;69267.16;;;16.68;98.91
3844;BME280;1937;51.444;6.484;2023-08-06T04:15:22;69247.09;;;16.73;98.51
3844;BME280;1937;51.444;6.484;2023-08-06T04:17:49;69216.41;;;16.62;98.33
3844;BME280;1937;51.444;6.484;2023-08-06T04:20:15;69177.72;;;16.54;98.10
3844;BME280;1937;51.444;6.484;2023-08-06T04:22:42;69174.97;;;16.49;98.19
3844;BME280;1937;51.444;6.484;2023-08-06T04:25:09;69126.84;;;16.44;99.11
3844;BME280;1937;51.444;6.484;2023-08-06T04:27:37;69217.59;;;16.46;99.59
3844;BME280;1937;51.444;6.484;2023-08-06T04:30:07;69242.44;;;16.62;99.31
3844;BME280;1937;51.444;6.484;2023-08-06T04:32:34;69273.19;;;16.66;99.02
3844;BME280;1937;51.444;6.484;2023-08-06T04:35:00;69268.34;;;16.87;97.44
3844;BME280;1937;51.444;6.484;2023-08-06T04:37:27;69297.25;;;16.96;96.71
3844;BME280;1937;51.444;6.484;2023-08-06T04:39:53;69218.94;;;16.69;98.06
3844;BME280;1937;51.444;6.484;2023-08-06T04:42:20;69197.78;;;16.66;98.39
3844;BME280;1937;51.444;6.484;2023-08-06T04:44:48;69259.59;;;16.66;99.07
3844;BME280;1937;51.444;6.484;2023-08-06T04:47:14;69257.28;;;16.75;98.83
3844;BME280;1937;51.444;6.484;2023-08-06T04:49:41;69301.53;;;17.04;97.55
3844;BME280;1937;51.444;6.484;2023-08-06T04:52:07;69265.53;;;16.89;97.07
3844;BME280;1937;51.444;6.484;2023-08-06T04:54:34;69299.84;;;16.96;96.88
3844;BME280;1937;51.444;6.484;2023-08-06T04:57:00;69226.59;;;16.82;97.77
3844;BME280;1937;51.444;6.484;2023-08-06T04:59:27;69321.56;;;16.88;99.09
3844;BME280;1937;51.444;6.484;2023-08-06T05:01:55;69317.91;;;16.91;99.36
3844;BME280;1937;51.444;6.484;2023-08-06T05:04:21;69312.94;;;16.89;99.46
3844;BME280;1937;51.444;6.484;2023-08-06T05:06:48;69361.63;;;17.02;99.26
3844;BME280;1937;51.444;6.484;2023-08-06T05:09:15;69415.16;;;17.12;98.47
3844;BME280;1937;51.444;6.484;2023-08-06T05:11:41;69405.22;;;17.26;97.68
3844;BME280;1937;51.444;6.484;2023-08-06T05:14:08;69389.66;;;17.19;97.38
3844;BME280;1937;51.444;6.484;2023-08-06T05:16:34;69335.00;;;17.19;98.04
3844;BME280;1937;51.444;6.484;2023-08-06T05:19:02;69448.41;;;17.47;96.19
3844;BME280;1937;51.444;6.484;2023-08-06T05:21:29;69375.72;;;17.45;94.73
3844;BME280;1937;51.444;6.484;2023-08-06T05:23:55;69341.09;;;17.29;95.70
3844;BME280;1937;51.444;6.484;2023-08-06T05:26:22;69353.72;;;17.26;95.85
3844;BME280;1937;51.444;6.484;2023-08-06T05:28:48;69389.19;;;17.41;95.75
3844;BME280;1937;51.444;6.484;2023-08-06T05:31:15;69346.00;;;17.37;95.86
3844;BME280;1937;51.444;6.484;2023-08-06T05:33:41;69343.16;;;17.22;96.87
3844;BME280;1937;51.444;6.484;2023-08-06T05:36:09;69379.53;;;17.28;96.80
3844;BME280;1937;51.444;6.484;2023-08-06T05:38:36;69381.25;;;17.36;96.77
3844;BME280;1937;51.444;6.484;2023-08-06T05:41:02;69375.31;;;17.31;96.92
3844;BME280;1937;51.444;6.484;2023-08-06T05:43:29;69400.50;;;17.50;96.16
3844;BME280;1937;51.444;6.484;2023-08-06T05:45:56;69351.72;;;17.27;96.61
3844;BME280;1937;51.444;6.484;2023-08-06T05:48:23;69347.19;;;17.20;97.43
3844;BME280;1937;51.444;6.484;2023-08-06T05:50:50;69399.53;;;17.47;97.25
3844;BME280;1937;51.444;6.484;2023-08-06T05:53:18;69454.50;;;17.56;96.49
3844;BME280;1937;51.444;6.484;2023-08-06T05:55:44;69476.03;;;17.86;95.72
3844;BME280;1937;51.444;6.484;2023-08-06T05:58:11;69550.06;;;18.00;94.89
3844;BME280;1937;51.444;6.484;2023-08-06T06:00:37;69559.59;;;18.08;94.39
3844;BME280;1937;51.444;6.484;2023-08-06T06:03:04;69538.59;;;18.04;94.10
3844;BME280;1937;51.444;6.484;2023-08-06T06:05:31;69538.88;;;18.13;93.88
3844;BME280;1937;51.444;6.484;2023-08-06T06:07:57;69495.25;;;18.07;92.47
3844;BME280;1937;51.444;6.484;2023-08-06T06:10:25;69356.69;;;17.64;91.41
3844;BME280;1937;51.444;6.484;2023-08-06T06:12:51;69298.81;;;17.46;92.01
3844;BME280;1937;51.444;6.484;2023-08-06T06:15:18;69343.13;;;17.57;92.56
3844;BME280;1937;51.444;6.484;2023-08-06T06:17:45;69328.09;;;17.57;92.15
3844;BME280;1937;51.444;6.484;2023-08-06T06:20:11;69381.16;;;17.78;91.47
3844;BME280;1937;51.444;6.484;2023-08-06T06:22:38;69384.63;;;17.88;90.55
3844;BME280;1937;51.444;6.484;2023-08-06T06:25:05;69391.75;;;17.94;89.98
3844;BME280;1937;51.444;6.484;2023-08-06T06:27:33;69365.84;;;17.98;90.16
3844;BME280;1937;51.444;6.484;2023-08-06T06:30:00;69403.78;;;18.09;89.98
3844;BME280;1937;51.444;6.484;2023-08-06T06:32:27;69392.03;;;18.03;89.64
3844;BME280;1937;51.444;6.484;2023-08-06T06:34:53;69369.53;;;18.06;90.81
3844;BME280;1937;51.444;6.484;2023-08-06T06:37:20;69420.00;;;18.09;91.05
3844;BME280;1937;51.444;6.484;2023-08-06T06:39:46;69434.38;;;18.15;90.74
3844;BME280;1937;51.444;6.484;2023-08-06T06:42:13;69405.22;;;18.08;90.60
3844;BME280;1937;51.444;6.484;2023-08-06T06:44:41;69406.22;;;18.22;89.78
3844;BME280;1937;51.444;6.484;2023-08-06T06:47:08;69508.16;;;18.49;88.90
3844;BME280;1937;51.444;6.484;2023-08-06T06:49:35;69520.13;;;18.70;87.86
3844;BME280;1937;51.444;6.484;2023-08-06T06:52:01;69564.00;;;18.92;87.44
3844;BME280;1937;51.444;6.484;2023-08-06T06:54:28;69584.72;;;19.05;87.35
3844;BME280;1937;51.444;6.484;2023-08-06T06:56:54;69622.69;;;19.33;86.18
3844;BME280;1937;51.444;6.484;2023-08-06T06:59:21;69560.31;;;19.13;85.11
3844;BME280;1937;51.444;6.484;2023-08-06T07:01:49;69522.22;;;19.20;84.11
3844;BME280;1937;51.444;6.484;2023-08-06T07:04:15;69698.56;;;19.73;84.14
3844;BME280;1937;51.444;6.484;2023-08-06T07:06:42;69770.28;;;20.09;82.21
3844;BME280;1937;51.444;6.484;2023-08-06T07:09:08;69668.22;;;19.87;82.38
3844;BME280;1937;51.444;6.484;2023-08-06T07:11:35;69696.22;;;20.11;80.97
3844;BME280;1937;51.444;6.484;2023-08-06T07:14:02;69730.47;;;20.37;79.81
3844;BME280;1937;51.444;6.484;2023-08-06T07:16:28;69658.81;;;20.23;79.95
3844;BME280;1937;51.444;6.484;2023-08-06T07:18:56;69696.00;;;20.41;78.04
3844;BME280;1937;51.444;6.484;2023-08-06T07:21:23;69789.44;;;20.65;77.71
3844;BME280;1937;51.444;6.484;2023-08-06T07:23:50;69591.63;;;20.11;78.07
3844;BME280;1937;51.444;6.484;2023-08-06T07:26:16;69594.75;;;20.29;77.13
3844;BME280;1937;51.444;6.484;2023-08-06T07:28:43;69595.31;;;20.07;80.31
3844;BME280;1937;51.444;6.484;2023-08-06T07:31:10;69655.97;;;20.25;81.48
3844;BME280;1937;51.444;6.484;2023-08-06T07:33:36;69735.66;;;20.55;79.46
3844;BME280;1937;51.444;6.484;2023-08-06T07:36:09;69781.31;;;20.85;77.27
3844;BME280;1937;51.444;6.484;2023-08-06T07:38:36;69600.13;;;20.44;76.25
3844;BME280;1937;51.444;6.484;2023-08-06T07:41:03;69549.34;;;20.37;75.47
3844;BME280;1937;51.444;6.484;2023-08-06T07:43:30;69425.56;;;20.05;76.96
3844;BME280;1937;51.444;6.484;2023-08-06T07:45:57;69400.25;;;19.81;77.15
3844;BME280;1937;51.444;6.484;2023-08-06T07:48:24;69457.06;;;19.87;77.88
3844;BME280;1937;51.444;6.484;2023-08-06T07:50:51;69391.00;;;19.71;76.85
3844;BME280;1937;51.444;6.484;2023-08-06T07:53:20;69495.69;;;19.98;78.16
3844;BME280;1937;51.444;6.484;2023-08-06T07:55:51;69650.97;;;20.74;74.79
3844;BME280;1937;51.444;6.484;2023-08-06T07:58:19;69684.78;;;20.99;73.30
3844;BME280;1937;51.444;6.484;2023-08-06T08:00:46;69832.22;;;21.55;72.04
3844;BME280;1937;51.444;6.484;2023-08-06T08:03:14;69789.47;;;21.68;71.34
3844;BME280;1937;51.444;6.484;2023-08-06T08:05:41;69611.72;;;20.97;73.67
3844;BME280;1937;51.444;6.484;2023-08-06T08:08:08;69728.31;;;21.24;73.92
3844;BME280;1937;51.444;6.484;2023-08-06T08:10:36;69635.63;;;20.88;75.64
3844;BME280;1937;51.444;6.484;2023-08-06T08:13:04;69468.84;;;20.37;76.33
3844;BME280;1937;51.444;6.484;2023-08-06T08:15:31;69357.25;;;19.69;78.74
3844;BME280;1937;51.444;6.484;2023-08-06T08:17:58;69472.50;;;20.00;77.71
3844;BME280;1937;51.444;6.484;2023-08-06T08:20:26;69476.31;;;20.13;77.38
3844;BME280;1937;51.444;6.484;2023-08-06T08:22:57;69535.06;;;20.36;75.71
3844;BME280;1937;51.444;6.484;2023-08-06T08:25:56;69539.47;;;20.49;76.71
3844;BME280;1937;51.444;6.484;2023-08-06T08:28:23;69561.97;;;20.63;75.25
3844;BME280;1937;51.444;6.484;2023-08-06T08:30:49;69555.66;;;20.67;73.93
3844;BME280;1937;51.444;6.484;2023-08-06T08:33:16;69547.56;;;20.58;75.80
3844;BME280;1937;51.444;6.484;2023-08-06T08:35:42;69524.13;;;20.62;73.85
3844;BME280;1937;51.444;6.484;2023-08-06T08:38:09;69487.25;;;20.31;76.16
3844;BME280;1937;51.444;6.484;2023-08-06T08:40:40;69494.53;;;20.41;76.42
3844;BME280;1937;51.444;6.484;2023-08-06T08:43:11;69437.09;;;20.24;77.73
3844;BME280;1937;51.444;6.484;2023-08-06T08:45:39;69445.28;;;20.04;76.73
3844;BME280;1937;51.444;6.484;2023-08-06T08:48:06;69294.53;;;19.69;77.29
3844;BME280;1937;51.444;6.484;2023-08-06T08:50:33;69417.72;;;20.05;77.52
3844;BME280;1937;51.444;6.484;2023-08-06T08:53:00;69396.94;;;19.76;79.18
3844;BME280;1937;51.444;6.484;2023-08-06T08:55:27;69340.38;;;19.79;80.31
3844;BME280;1937;51.444;6.484;2023-08-06T08:57:53;69451.00;;;19.89;79.88
3844;BME280;1937;51.444;6.484;2023-08-06T09:00:21;69456.81;;;20.00;80.00
3844;BME280;1937;51.444;6.484;2023-08-06T09:02:48;69357.25;;;19.69;80.04
3844;BME280;1937;51.444;6.484;2023-08-06T09:05:16;69508.91;;;20.14;78.90
3844;BME280;1937;51.444;6.484;2023-08-06T09:07:48;69471.56;;;20.09;78.27
3844;BME280;1937;51.444;6.484;2023-08-06T09:10:17;69564.56;;;20.41;77.90
3844;BME280;1937;51.444;6.484;2023-08-06T09:12:47;69659.78;;;20.77;77.59
3844;BME280;1937;51.444;6.484;2023-08-06T09:15:14;69616.81;;;20.59;77.67
3844;BME280;1937;51.444;6.484;2023-08-06T09:17:42;69673.59;;;20.82;78.26
3844;BME280;1937;51.444;6.484;2023-08-06T09:20:11;69641.94;;;20.84;75.22
3844;BME280;1937;51.444;6.484;2023-08-06T09:22:37;69637.31;;;20.96;74.09
3844;BME280;1937;51.444;6.484;2023-08-06T09:25:05;69561.50;;;20.67;74.97
3844;BME280;1937;51.444;6.484;2023-08-06T09:27:35;69609.06;;;20.85;75.29
3844;BME280;1937;51.444;6.484;2023-08-06T09:30:02;69636.34;;;20.93;75.51
3844;BME280;1937;51.444;6.484;2023-08-06T09:32:45;69595.16;;;20.87;75.44
3844;BME280;1937;51.444;6.484;2023-08-06T09:35:15;69648.38;;;21.08;75.05
3844;BME280;1937;51.444;6.484;2023-08-06T09:37:42;69658.63;;;21.21;73.47
3844;BME280;1937;51.444;6.484;2023-08-06T09:40:24;69622.41;;;21.06;74.54
3844;BME280;1937;51.444;6.484;2023-08-06T09:42:51;69594.91;;;21.00;73.89
3844;BME280;1937;51.444;6.484;2023-08-06T09:45:17;69491.28;;;20.63;75.44
3844;BME280;1937;51.444;6.484;2023-08-06T09:47:45;69351.66;;;20.00;77.76
3844;BME280;1937;51.444;6.484;2023-08-06T09:50:15;69358.91;;;19.88;79.70
3844;BME280;1937;51.444;6.484;2023-08-06T09:52:42;69427.00;;;19.93;79.68
3844;BME280;1937;51.444;6.484;2023-08-06T09:55:10;69354.28;;;19.78;80.27
3844;BME280;1937;51.444;6.484;2023-08-06T09:57:38;69429.25;;;19.90;78.86
3844;BME280;1937;51.444;6.484;2023-08-06T10:00:06;69277.34;;;19.54;80.45
3844;BME280;1937;51.444;6.484;2023-08-06T10:02:35;69240.50;;;18.96;87.54
3844;BME280;1937;51.444;6.484;2023-08-06T10:05:04;69109.38;;;18.02;95.34
3844;BME280;1937;51.444;6.484;2023-08-06T10:07:31;69216.19;;;17.91;97.01
3844;BME280;1937;51.444;6.484;2023-08-06T10:09:58;69143.06;;;17.53;99.06
3844;BME280;1937;51.444;6.484;2023-08-06T10:12:25;69167.97;;;17.23;100.00
3844;BME280;1937;51.444;6.484;2023-08-06T10:14:54;69100.50;;;16.70;100.00
3844;BME280;1937;51.444;6.484;2023-08-06T10:17:23;69193.53;;;16.69;100.00
3844;BME280;1937;51.444;6.484;2023-08-06T10:19:50;69098.53;;;16.24;100.00
3844;BME280;1937;51.444;6.484;2023-08-06T10:22:21;69095.25;;;16.01;100.00
3844;BME280;1937;51.444;6.484;2023-08-06T10:24:50;69113.59;;;15.88;100.00
3844;BME280;1937;51.444;6.484;2023-08-06T10:27:21;69045.56;;;15.63;100.00
3844;BME280;1937;51.444;6.484;2023-08-06T10:29:48;69136.56;;;15.85;100.00
3844;BME280;1937;51.444;6.484;2023-08-06T10:32:15;69169.84;;;15.78;100.00
3844;BME280;1937;51.444;6.484;2023-08-06T10:34:56;69116.47;;;15.62;100.00
3844;BME280;1937;51.444;6.484;2023-08-06T10:37:34;69107.06;;;15.47;100.00
3844;BME280;1937;51.444;6.484;2023-08-06T10:40:01;69143.91;;;15.36;100.00
3844;BME280;1937;51.444;6.484;2023-08-06T10:42:29;69135.59;;;15.29;100.00
3844;BME280;1937;51.444;6.484;2023-08-06T10:45:17;69291.31;;;15.53;100.00
3844;BME280;1937;51.444;6.484;2023-08-06T10:47:45;69328.59;;;15.56;100.00
3844;BME280;1937;51.444;6.484;2023-08-06T10:50:14;69268.97;;;15.43;100.00
3844;BME280;1937;51.444;6.484;2023-08-06T10:52:43;69244.88;;;15.38;100.00
3844;BME280;1937;51.444;6.484;2023-08-06T10:55:10;69301.38;;;15.38;100.00
3844;BME280;1937;51.444;6.484;2023-08-06T10:57:37;69346.41;;;15.54;100.00
3844;BME280;1937;51.444;6.484;2023-08-06T11:00:05;69319.53;;;15.38;100.00
3844;BME280;1937;51.444;6.484;2023-08-06T11:02:33;69276.78;;;15.19;100.00
3844;BME280;1937;51.444;6.484;2023-08-06T11:05:05;69340.94;;;15.32;100.00
3844;BME280;1937;51.444;6.484;2023-08-06T11:07:32;69363.09;;;15.37;100.00
3844;BME280;1937;51.444;6.484;2023-08-06T11:10:02;69409.13;;;15.43;100.00
3844;BME280;1937;51.444;6.484;2023-08-06T11:12:29;69504.72;;;15.61;100.00
3844;BME280;1937;51.444;6.484;2023-08-06T11:14:56;69494.13;;;15.63;100.00
3844;BME280;1937;51.444;6.484;2023-08-06T11:17:23;69434.47;;;15.49;100.00
3844;BME280;1937;51.444;6.484;2023-08-06T11:19:50;69399.19;;;15.39;100.00
3844;BME280;1937;51.444;6.484;2023-08-06T11:22:17;69404.03;;;15.30;100.00
3844;BME280;1937;51.444;6.484;2023-08-06T11:24:44;69384.09;;;15.29;100.00
3844;BME280;1937;51.444;6.484;2023-08-06T11:27:13;69403.34;;;15.12;100.00
3844;BME280;1937;51.444;6.484;2023-08-06T11:29:40;69439.25;;;15.16;100.00
3844;BME280;1937;51.444;6.484;2023-08-06T11:32:07;69463.81;;;15.10;100.00
3844;BME280;1937;51.444;6.484;2023-08-06T11:34:34;69454.66;;;15.05;100.00
3844;BME280;1937;51.444;6.484;2023-08-06T11:37:02;69534.59;;;15.29;100.00
3844;BME280;1937;51.444;6.484;2023-08-06T11:39:30;69546.16;;;15.30;100.00
3844;BME280;1937;51.444;6.484;2023-08-06T11:41:57;69556.13;;;15.34;100.00
3844;BME280;1937;51.444;6.484;2023-08-06T11:44:29;69595.19;;;15.58;100.00
3844;BME280;1937;51.444;6.484;2023-08-06T11:46:56;69616.94;;;15.61;100.00
3844;BME280;1937;51.444;6.484;2023-08-06T11:49:38;69640.13;;;15.63;100.00
3844;BME280;1937;51.444;6.484;2023-08-06T11:52:12;69597.03;;;15.53;100.00
3844;BME280;1937;51.444;6.484;2023-08-06T11:54:39;69559.91;;;15.41;100.00
3844;BME280;1937;51.444;6.484;2023-08-06T11:57:06;69579.50;;;15.34;100.00
3844;BME280;1937;51.444;6.484;2023-08-06T11:59:34;69573.69;;;15.33;100.00
3844;BME280;1937;51.444;6.484;2023-08-06T12:02:02;69607.66;;;15.25;100.00
3844;BME280;1937;51.444;6.484;2023-08-06T12:04:30;69644.78;;;15.23;100.00
3844;BME280;1937;51.444;6.484;2023-08-06T12:07:04;69630.81;;;15.27;100.00
3844;BME280;1937;51.444;6.484;2023-08-06T12:09:31;69695.69;;;15.33;100.00
3844;BME280;1937;51.444;6.484;2023-08-06T12:11:57;69690.88;;;15.36;100.00
3844;BME280;1937;51.444;6.484;2023-08-06T12:14:24;69730.19;;;15.38;100.00
3844;BME280;1937;51.444;6.484;2023-08-06T12:16:52;69633.22;;;15.22;100.00
3844;BME280;1937;51.444;6.484;2023-08-06T12:19:18;69777.53;;;15.45;100.00
3844;BME280;1937;51.444;6.484;2023-08-06T12:21:48;69772.94;;;15.46;100.00
3844;BME280;1937;51.444;6.484;2023-08-06T12:24:15;69781.72;;;15.49;100.00
3844;BME280;1937;51.444;6.484;2023-08-06T12:26:41;69785.31;;;15.45;100.00
3844;BME280;1937;51.444;6.484;2023-08-06T12:29:08;69799.91;;;15.49;100.00
3844;BME280;1937;51.444;6.484;2023-08-06T12:31:35;69802.88;;;15.51;100.00
3844;BME280;1937;51.444;6.484;2023-08-06T12:34:02;69792.13;;;15.49;100.00
3844;BME280;1937;51.444;6.484;2023-08-06T12:36:29;69877.81;;;15.62;100.00
3844;BME280;1937;51.444;6.484;2023-08-06T12:38:56;69753.78;;;15.36;100.00
3844;BME280;1937;51.444;6.484;2023-08-06T12:41:22;69712.44;;;15.28;100.00
3844;BME280;1937;51.444;6.484;2023-08-06T12:43:49;69756.97;;;15.37;100.00
3844;BME280;1937;51.444;6.484;2023-08-06T12:46:16;69684.91;;;15.18;100.00
3844;BME280;1937;51.444;6.484;2023-08-06T12:48:43;69729.03;;;15.24;100.00
3844;BME280;1937;51.444;6.484;2023-08-06T12:51:11;69751.19;;;15.30;100.00
3844;BME280;1937;51.444;6.484;2023-08-06T12:53:37;69682.91;;;15.31;100.00
3844;BME280;1937;51.444;6.484;2023-08-06T12:56:04;69754.75;;;15.39;100.00
3844;BME280;1937;51.444;6.484;2023-08-06T12:58:30;69839.66;;;15.61;100.00
3844;BME280;1937;51.444;6.484;2023-08-06T13:00:57;69823.50;;;15.60;100.00
3844;BME280;1937;51.444;6.484;2023-08-06T13:03:24;69781.94;;;15.47;100.00
3844;BME280;1937;51.444;6.484;2023-08-06T13:05:50;69829.84;;;15.48;100.00
3844;BME280;1937;51.444;6.484;2023-08-06T13:08:18;69938.94;;;15.68;100.00
3844;BME280;1937;51.444;6.484;2023-08-06T13:10:45;69851.03;;;15.57;100.00
3844;BME280;1937;51.444;6.484;2023-08-06T13:13:11;69873.03;;;15.65;100.00
3844;BME280;1937;51.444;6.484;2023-08-06T13:15:38;69839.84;;;15.52;100.00
3844;BME280;1937;51.444;6.484;2023-08-06T13:18:05;69834.63;;;15.45;100.00
3844;BME280;1937;51.444;6.484;2023-08-06T13:20:31;69870.00;;;15.49;100.00
3844;BME280;1937;51.444;6.484;2023-08-06T13:22:58;69862.38;;;15.40;100.00